sensor_id;sensor_type;location;lat;lon;timestamp;P1;durP1;ratioP1;P2;durP2;ratioP2
6475;SDS011;3271;51.910;5.840;2023-07-02T00:02:19;6.30;;;3.85;;
6475;SDS011;3271;51.910;5.840;2023-07-02T00:04:45;9.05;;;4.03;;
6475;SDS011;3271;51.910;5.840;2023-07-02T00:07:11;12.57;;;4.70;;
6475;SDS011;3271;51.910;5.840;2023-07-02T00:09:37;7.43;;;4.20;;
6475;SDS011;3271;51.910;5.840;2023-07-02T00:12:03;9.75;;;4.65;;
6475;SDS011;3271;51.910;5.840;2023-07-02T00:14:29;6.50;;;4.55;;
6475;SDS011;3271;51.910;5.840;2023-07-02T00:16:55;7.05;;;4.82;;
6475;SDS011;3271;51.910;5.840;2023-07-02T00:19:21;8.43;;;5.13;;
6475;SDS011;3271;51.910;5.840;2023-07-02T00:21:47;11.75;;;5.45;;
6475;SDS011;3271;51.910;5.840;2023-07-02T00:24:13;9.18;;;5.40;;
6475;SDS011;3271;51.910;5.840;2023-07-02T00:26:40;10.75;;;5.00;;
6475;SDS011;3271;51.910;5.840;2023-07-02T00:29:07;9.80;;;5.18;;
6475;SDS011;3271;51.910;5.840;2023-07-02T00:31:34;10.07;;;5.53;;
6475;SDS011;3271;51.910;5.840;2023-07-02T00:34:00;10.55;;;5.63;;
6475;SDS011;3271;51.910;5.840;2023-07-02T00:36:26;10.88;;;5.88;;
6475;SDS011;3271;51.910;5.840;2023-07-02T00:38:52;9.25;;;5.70;;
6475;SDS011;3271;51.910;5.840;2023-07-02T00:41:18;12.00;;;6.70;;
6475;SDS011;3271;51.910;5.840;2023-07-02T00:43:44;11.60;;;6.70;;
6475;SDS011;3271;51.910;5.840;2023-07-02T00:46:11;14.13;;;6.40;;
6475;SDS011;3271;51.910;5.840;2023-07-02T00:48:42;12.77;;;7.15;;
6475;SDS011;3271;51.910;5.840;2023-07-02T00:51:08;11.77;;;6.55;;
6475;SDS011;3271;51.910;5.840;2023-07-02T00:53:35;10.52;;;6.20;;
6475;SDS011;3271;51.910;5.840;2023-07-02T00:56:01;7.93;;;5.40;;
6475;SDS011;3271;51.910;5.840;2023-07-02T00:58:26;13.18;;;5.57;;
6475;SDS011;3271;51.910;5.840;2023-07-02T01:00:52;7.22;;;5.10;;
6475;SDS011;3271;51.910;5.840;2023-07-02T01:03:21;9.88;;;5.35;;
6475;SDS011;3271;51.910;5.840;2023-07-02T01:05:47;8.98;;;5.93;;
6475;SDS011;3271;51.910;5.840;2023-07-02T01:08:13;7.72;;;4.90;;
6475;SDS011;3271;51.910;5.840;2023-07-02T01:10:39;8.75;;;5.40;;
6475;SDS011;3271;51.910;5.840;2023-07-02T01:13:12;7.70;;;5.00;;
6475;SDS011;3271;51.910;5.840;2023-07-02T01:15:40;9.35;;;5.30;;
6475;SDS011;3271;51.910;5.840;2023-07-02T01:18:06;10.43;;;5.30;;
6475;SDS011;3271;51.910;5.840;2023-07-02T01:20:33;12.13;;;5.53;;
6475;SDS011;3271;51.910;5.840;2023-07-02T01:23:00;7.72;;;5.78;;
6475;SDS011;3271;51.910;5.840;2023-07-02T01:25:27;9.75;;;5.97;;
6475;SDS011;3271;51.910;5.840;2023-07-02T01:27:53;8.05;;;5.20;;
6475;SDS011;3271;51.910;5.840;2023-07-02T01:30:20;10.80;;;5.72;;
6475;SDS011;3271;51.910;5.840;2023-07-02T01:32:46;9.85;;;5.72;;
6475;SDS011;3271;51.910;5.840;2023-07-02T01:35:12;11.68;;;6.07;;
6475;SDS011;3271;51.910;5.840;2023-07-02T01:37:38;10.65;;;6.00;;
6475;SDS011;3271;51.910;5.840;2023-07-02T01:40:04;8.20;;;5.47;;
6475;SDS011;3271;51.910;5.840;2023-07-02T01:42:31;9.73;;;5.95;;
6475;SDS011;3271;51.910;5.840;2023-07-02T01:44:57;9.48;;;5.50;;
6475;SDS011;3271;51.910;5.840;2023-07-02T01:47:23;9.77;;;5.45;;
6475;SDS011;3271;51.910;5.840;2023-07-02T01:49:49;11.63;;;6.22;;
6475;SDS011;3271;51.910;5.840;2023-07-02T01:52:15;13.10;;;6.10;;
6475;SDS011;3271;51.910;5.840;2023-07-02T01:54:41;12.20;;;5.50;;
6475;SDS011;3271;51.910;5.840;2023-07-02T01:57:07;7.22;;;4.97;;
6475;SDS011;3271;51.910;5.840;2023-07-02T01:59:33;11.02;;;5.78;;
6475;SDS011;3271;51.910;5.840;2023-07-02T02:01:59;10.27;;;5.38;;
6475;SDS011;3271;51.910;5.840;2023-07-02T02:04:25;8.65;;;5.13;;
6475;SDS011;3271;51.910;5.840;2023-07-02T02:06:51;13.20;;;5.38;;
6475;SDS011;3271;51.910;5.840;2023-07-02T02:09:17;10.25;;;5.60;;
6475;SDS011;3271;51.910;5.840;2023-07-02T02:11:44;8.32;;;5.10;;
6475;SDS011;3271;51.910;5.840;2023-07-02T02:14:11;8.93;;;5.63;;
6475;SDS011;3271;51.910;5.840;2023-07-02T02:16:37;7.95;;;5.45;;
6475;SDS011;3271;51.910;5.840;2023-07-02T02:19:03;10.60;;;5.40;;
6475;SDS011;3271;51.910;5.840;2023-07-02T02:21:29;7.97;;;4.90;;
6475;SDS011;3271;51.910;5.840;2023-07-02T02:23:55;10.40;;;5.57;;
6475;SDS011;3271;51.910;5.840;2023-07-02T02:26:22;9.13;;;5.13;;
6475;SDS011;3271;51.910;5.840;2023-07-02T02:28:50;10.93;;;5.18;;
6475;SDS011;3271;51.910;5.840;2023-07-02T02:31:16;7.70;;;4.68;;
6475;SDS011;3271;51.910;5.840;2023-07-02T02:33:42;9.73;;;5.75;;
6475;SDS011;3271;51.910;5.840;2023-07-02T02:36:08;8.57;;;5.22;;
6475;SDS011;3271;51.910;5.840;2023-07-02T02:38:34;9.27;;;5.20;;
6475;SDS011;3271;51.910;5.840;2023-07-02T02:41:00;10.80;;;6.43;;
6475;SDS011;3271;51.910;5.840;2023-07-02T02:43:27;9.68;;;5.57;;
6475;SDS011;3271;51.910;5.840;2023-07-02T02:45:53;10.80;;;5.05;;
6475;SDS011;3271;51.910;5.840;2023-07-02T02:48:18;11.20;;;5.65;;
6475;SDS011;3271;51.910;5.840;2023-07-02T02:50:47;9.43;;;5.13;;
6475;SDS011;3271;51.910;5.840;2023-07-02T02:53:13;10.45;;;5.82;;
6475;SDS011;3271;51.910;5.840;2023-07-02T02:55:38;11.30;;;5.75;;
6475;SDS011;3271;51.910;5.840;2023-07-02T02:58:04;9.40;;;5.05;;
6475;SDS011;3271;51.910;5.840;2023-07-02T03:00:30;9.98;;;6.10;;
6475;SDS011;3271;51.910;5.840;2023-07-02T03:02:56;8.68;;;5.35;;
6475;SDS011;3271;51.910;5.840;2023-07-02T03:05:22;9.35;;;5.03;;
6475;SDS011;3271;51.910;5.840;2023-07-02T03:07:49;11.23;;;5.60;;
6475;SDS011;3271;51.910;5.840;2023-07-02T03:10:15;7.70;;;5.05;;
6475;SDS011;3271;51.910;5.840;2023-07-02T03:12:40;9.90;;;5.25;;
6475;SDS011;3271;51.910;5.840;2023-07-02T03:15:06;13.85;;;5.22;;
6475;SDS011;3271;51.910;5.840;2023-07-02T03:17:34;12.82;;;5.50;;
6475;SDS011;3271;51.910;5.840;2023-07-02T03:20:00;10.02;;;5.85;;
6475;SDS011;3271;51.910;5.840;2023-07-02T03:22:26;8.20;;;5.82;;
6475;SDS011;3271;51.910;5.840;2023-07-02T03:24:52;9.77;;;5.47;;
6475;SDS011;3271;51.910;5.840;2023-07-02T03:27:17;9.40;;;5.68;;
6475;SDS011;3271;51.910;5.840;2023-07-02T03:29:43;9.63;;;5.38;;
6475;SDS011;3271;51.910;5.840;2023-07-02T03:32:09;8.85;;;5.32;;
6475;SDS011;3271;51.910;5.840;2023-07-02T03:34:35;8.63;;;4.97;;
6475;SDS011;3271;51.910;5.840;2023-07-02T03:37:01;9.15;;;5.50;;
6475;SDS011;3271;51.910;5.840;2023-07-02T03:39:27;8.98;;;5.38;;
6475;SDS011;3271;51.910;5.840;2023-07-02T03:41:53;9.77;;;5.40;;
6475;SDS011;3271;51.910;5.840;2023-07-02T03:44:19;6.90;;;5.13;;
6475;SDS011;3271;51.910;5.840;2023-07-02T03:46:45;9.02;;;5.40;;
6475;SDS011;3271;51.910;5.840;2023-07-02T03:49:11;9.80;;;5.55;;
6475;SDS011;3271;51.910;5.840;2023-07-02T03:51:36;11.18;;;5.88;;
6475;SDS011;3271;51.910;5.840;2023-07-02T03:54:03;9.80;;;5.70;;
6475;SDS011;3271;51.910;5.840;2023-07-02T03:56:29;12.35;;;5.20;;
6475;SDS011;3271;51.910;5.840;2023-07-02T03:58:55;9.85;;;5.22;;
6475;SDS011;3271;51.910;5.840;2023-07-02T04:01:21;10.90;;;5.40;;
6475;SDS011;3271;51.910;5.840;2023-07-02T04:03:51;19.70;;;6.53;;
6475;SDS011;3271;51.910;5.840;2023-07-02T04:06:17;9.52;;;5.70;;
6475;SDS011;3271;51.910;5.840;2023-07-02T04:08:43;10.80;;;5.80;;
6475;SDS011;3271;51.910;5.840;2023-07-02T04:11:10;10.07;;;5.70;;
6475;SDS011;3271;51.910;5.840;2023-07-02T04:13:36;14.70;;;5.97;;
6475;SDS011;3271;51.910;5.840;2023-07-02T04:16:02;13.30;;;5.72;;
6475;SDS011;3271;51.910;5.840;2023-07-02T04:18:27;13.23;;;6.28;;
6475;SDS011;3271;51.910;5.840;2023-07-02T04:20:57;10.30;;;5.38;;
6475;SDS011;3271;51.910;5.840;2023-07-02T04:23:23;11.63;;;5.63;;
6475;SDS011;3271;51.910;5.840;2023-07-02T04:25:49;10.30;;;5.55;;
6475;SDS011;3271;51.910;5.840;2023-07-02T04:28:15;13.52;;;5.80;;
6475;SDS011;3271;51.910;5.840;2023-07-02T04:30:42;10.95;;;5.63;;
6475;SDS011;3271;51.910;5.840;2023-07-02T04:33:08;11.63;;;6.07;;
6475;SDS011;3271;51.910;5.840;2023-07-02T04:35:34;13.88;;;6.10;;
6475;SDS011;3271;51.910;5.840;2023-07-02T04:38:02;11.77;;;6.25;;
6475;SDS011;3271;51.910;5.840;2023-07-02T04:40:28;12.88;;;6.05;;
6475;SDS011;3271;51.910;5.840;2023-07-02T04:42:54;11.18;;;5.80;;
6475;SDS011;3271;51.910;5.840;2023-07-02T04:45:23;9.80;;;5.82;;
6475;SDS011;3271;51.910;5.840;2023-07-02T04:47:49;10.82;;;6.55;;
6475;SDS011;3271;51.910;5.840;2023-07-02T04:50:15;12.60;;;5.90;;
6475;SDS011;3271;51.910;5.840;2023-07-02T04:52:41;10.52;;;5.22;;
6475;SDS011;3271;51.910;5.840;2023-07-02T04:55:08;14.38;;;6.05;;
6475;SDS011;3271;51.910;5.840;2023-07-02T04:57:34;16.90;;;6.70;;
6475;SDS011;3271;51.910;5.840;2023-07-02T05:00:00;9.95;;;5.90;;
6475;SDS011;3271;51.910;5.840;2023-07-02T05:02:26;13.88;;;7.03;;
6475;SDS011;3271;51.910;5.840;2023-07-02T05:04:51;11.32;;;6.47;;
6475;SDS011;3271;51.910;5.840;2023-07-02T05:07:17;16.27;;;7.03;;
6475;SDS011;3271;51.910;5.840;2023-07-02T05:09:43;16.70;;;6.38;;
6475;SDS011;3271;51.910;5.840;2023-07-02T05:12:09;13.27;;;6.50;;
6475;SDS011;3271;51.910;5.840;2023-07-02T05:14:35;17.98;;;6.95;;
6475;SDS011;3271;51.910;5.840;2023-07-02T05:17:02;17.25;;;7.20;;
6475;SDS011;3271;51.910;5.840;2023-07-02T05:19:28;11.93;;;6.45;;
6475;SDS011;3271;51.910;5.840;2023-07-02T05:21:54;13.25;;;6.80;;
6475;SDS011;3271;51.910;5.840;2023-07-02T05:24:20;13.70;;;6.35;;
6475;SDS011;3271;51.910;5.840;2023-07-02T05:26:46;15.43;;;6.72;;
6475;SDS011;3271;51.910;5.840;2023-07-02T05:29:12;12.07;;;6.88;;
6475;SDS011;3271;51.910;5.840;2023-07-02T05:31:39;13.32;;;6.35;;
6475;SDS011;3271;51.910;5.840;2023-07-02T05:34:05;16.48;;;6.97;;
6475;SDS011;3271;51.910;5.840;2023-07-02T05:36:31;12.65;;;6.88;;
6475;SDS011;3271;51.910;5.840;2023-07-02T05:38:57;11.70;;;6.28;;
6475;SDS011;3271;51.910;5.840;2023-07-02T05:41:23;13.00;;;5.90;;
6475;SDS011;3271;51.910;5.840;2023-07-02T05:43:49;11.38;;;6.32;;
6475;SDS011;3271;51.910;5.840;2023-07-02T05:46:16;11.52;;;6.25;;
6475;SDS011;3271;51.910;5.840;2023-07-02T05:48:42;13.45;;;6.68;;
6475;SDS011;3271;51.910;5.840;2023-07-02T05:51:08;11.40;;;6.30;;
6475;SDS011;3271;51.910;5.840;2023-07-02T05:53:34;16.70;;;7.45;;
6475;SDS011;3271;51.910;5.840;2023-07-02T05:56:00;13.57;;;6.55;;
6475;SDS011;3271;51.910;5.840;2023-07-02T05:58:26;13.50;;;6.05;;
6475;SDS011;3271;51.910;5.840;2023-07-02T06:00:52;14.02;;;6.63;;
6475;SDS011;3271;51.910;5.840;2023-07-02T06:03:18;13.38;;;6.40;;
6475;SDS011;3271;51.910;5.840;2023-07-02T06:05:48;13.57;;;6.28;;
6475;SDS011;3271;51.910;5.840;2023-07-02T06:08:18;14.30;;;6.40;;
6475;SDS011;3271;51.910;5.840;2023-07-02T06:10:47;19.05;;;6.63;;
6475;SDS011;3271;51.910;5.840;2023-07-02T06:13:13;13.13;;;6.85;;
6475;SDS011;3271;51.910;5.840;2023-07-02T06:15:39;15.90;;;6.45;;
6475;SDS011;3271;51.910;5.840;2023-07-02T06:18:05;16.92;;;7.03;;
6475;SDS011;3271;51.910;5.840;2023-07-02T06:20:31;11.00;;;6.05;;
6475;SDS011;3271;51.910;5.840;2023-07-02T06:22:57;9.70;;;5.85;;
6475;SDS011;3271;51.910;5.840;2023-07-02T06:25:23;12.32;;;5.88;;
6475;SDS011;3271;51.910;5.840;2023-07-02T06:27:49;11.50;;;6.13;;
6475;SDS011;3271;51.910;5.840;2023-07-02T06:30:16;14.57;;;6.18;;
6475;SDS011;3271;51.910;5.840;2023-07-02T06:32:42;13.23;;;5.78;;
6475;SDS011;3271;51.910;5.840;2023-07-02T06:35:08;10.20;;;5.65;;
6475;SDS011;3271;51.910;5.840;2023-07-02T06:37:34;15.73;;;5.97;;
6475;SDS011;3271;51.910;5.840;2023-07-02T06:40:00;10.15;;;5.93;;
6475;SDS011;3271;51.910;5.840;2023-07-02T06:42:26;12.63;;;6.65;;
6475;SDS011;3271;51.910;5.840;2023-07-02T06:44:52;10.23;;;5.22;;
6475;SDS011;3271;51.910;5.840;2023-07-02T06:47:18;10.02;;;5.50;;
6475;SDS011;3271;51.910;5.840;2023-07-02T06:49:44;11.85;;;5.95;;
6475;SDS011;3271;51.910;5.840;2023-07-02T06:52:09;10.55;;;5.60;;
6475;SDS011;3271;51.910;5.840;2023-07-02T06:54:35;14.13;;;5.90;;
6475;SDS011;3271;51.910;5.840;2023-07-02T06:57:01;9.95;;;5.07;;
6475;SDS011;3271;51.910;5.840;2023-07-02T06:59:27;12.32;;;5.40;;
6475;SDS011;3271;51.910;5.840;2023-07-02T07:01:53;9.50;;;5.78;;
6475;SDS011;3271;51.910;5.840;2023-07-02T07:04:19;13.43;;;5.95;;
6475;SDS011;3271;51.910;5.840;2023-07-02T07:06:45;14.35;;;6.38;;
6475;SDS011;3271;51.910;5.840;2023-07-02T07:09:11;14.65;;;6.13;;
6475;SDS011;3271;51.910;5.840;2023-07-02T07:11:37;11.95;;;5.60;;
6475;SDS011;3271;51.910;5.840;2023-07-02T07:14:03;9.80;;;5.07;;
6475;SDS011;3271;51.910;5.840;2023-07-02T07:16:29;9.90;;;5.38;;
6475;SDS011;3271;51.910;5.840;2023-07-02T07:18:55;8.70;;;4.75;;
6475;SDS011;3271;51.910;5.840;2023-07-02T07:21:21;9.85;;;5.18;;
6475;SDS011;3271;51.910;5.840;2023-07-02T07:23:48;9.43;;;5.07;;
6475;SDS011;3271;51.910;5.840;2023-07-02T07:26:13;9.60;;;4.88;;
6475;SDS011;3271;51.910;5.840;2023-07-02T07:28:40;11.77;;;5.05;;
6475;SDS011;3271;51.910;5.840;2023-07-02T07:31:06;12.15;;;4.93;;
6475;SDS011;3271;51.910;5.840;2023-07-02T07:33:32;12.02;;;4.72;;
6475;SDS011;3271;51.910;5.840;2023-07-02T07:35:58;9.77;;;4.82;;
6475;SDS011;3271;51.910;5.840;2023-07-02T07:38:24;9.00;;;4.85;;
6475;SDS011;3271;51.910;5.840;2023-07-02T07:40:51;7.88;;;4.47;;
6475;SDS011;3271;51.910;5.840;2023-07-02T07:43:17;9.90;;;4.50;;
6475;SDS011;3271;51.910;5.840;2023-07-02T07:45:43;10.82;;;5.40;;
6475;SDS011;3271;51.910;5.840;2023-07-02T07:48:09;11.57;;;5.13;;
6475;SDS011;3271;51.910;5.840;2023-07-02T07:50:34;8.60;;;5.15;;
6475;SDS011;3271;51.910;5.840;2023-07-02T07:53:00;8.27;;;4.75;;
6475;SDS011;3271;51.910;5.840;2023-07-02T07:55:27;8.20;;;4.15;;
6475;SDS011;3271;51.910;5.840;2023-07-02T07:57:52;8.70;;;4.43;;
6475;SDS011;3271;51.910;5.840;2023-07-02T08:00:18;7.78;;;5.15;;
6475;SDS011;3271;51.910;5.840;2023-07-02T08:02:45;8.77;;;5.00;;
6475;SDS011;3271;51.910;5.840;2023-07-02T08:05:14;9.15;;;4.75;;
6475;SDS011;3271;51.910;5.840;2023-07-02T08:07:40;8.68;;;5.13;;
6475;SDS011;3271;51.910;5.840;2023-07-02T08:10:06;9.00;;;4.00;;
6475;SDS011;3271;51.910;5.840;2023-07-02T08:12:35;8.13;;;4.82;;
6475;SDS011;3271;51.910;5.840;2023-07-02T08:15:01;7.18;;;4.28;;
6475;SDS011;3271;51.910;5.840;2023-07-02T08:17:27;10.30;;;4.95;;
6475;SDS011;3271;51.910;5.840;2023-07-02T08:19:55;15.18;;;5.03;;
6475;SDS011;3271;51.910;5.840;2023-07-02T08:22:21;7.63;;;4.32;;
6475;SDS011;3271;51.910;5.840;2023-07-02T08:24:47;6.50;;;4.00;;
6475;SDS011;3271;51.910;5.840;2023-07-02T08:27:14;6.72;;;4.38;;
6475;SDS011;3271;51.910;5.840;2023-07-02T08:29:43;7.80;;;4.03;;
6475;SDS011;3271;51.910;5.840;2023-07-02T08:32:09;8.88;;;5.13;;
6475;SDS011;3271;51.910;5.840;2023-07-02T08:34:35;5.80;;;3.88;;
6475;SDS011;3271;51.910;5.840;2023-07-02T08:37:01;9.13;;;4.90;;
6475;SDS011;3271;51.910;5.840;2023-07-02T08:39:27;8.10;;;4.00;;
6475;SDS011;3271;51.910;5.840;2023-07-02T08:41:53;6.88;;;4.15;;
6475;SDS011;3271;51.910;5.840;2023-07-02T08:44:19;7.13;;;3.78;;
6475;SDS011;3271;51.910;5.840;2023-07-02T08:46:49;10.77;;;4.35;;
6475;SDS011;3271;51.910;5.840;2023-07-02T08:49:18;10.00;;;4.25;;
6475;SDS011;3271;51.910;5.840;2023-07-02T08:51:44;7.60;;;4.28;;
6475;SDS011;3271;51.910;5.840;2023-07-02T08:54:10;6.40;;;4.03;;
6475;SDS011;3271;51.910;5.840;2023-07-02T08:56:36;9.82;;;3.90;;
6475;SDS011;3271;51.910;5.840;2023-07-02T08:59:02;7.32;;;3.88;;
6475;SDS011;3271;51.910;5.840;2023-07-02T09:01:28;8.02;;;4.55;;
6475;SDS011;3271;51.910;5.840;2023-07-02T09:03:58;8.60;;;4.10;;
6475;SDS011;3271;51.910;5.840;2023-07-02T09:06:27;8.40;;;4.53;;
6475;SDS011;3271;51.910;5.840;2023-07-02T09:08:52;7.00;;;4.10;;
6475;SDS011;3271;51.910;5.840;2023-07-02T09:11:18;8.77;;;4.93;;
6475;SDS011;3271;51.910;5.840;2023-07-02T09:13:45;8.77;;;4.88;;
6475;SDS011;3271;51.910;5.840;2023-07-02T09:16:27;8.27;;;4.22;;
6475;SDS011;3271;51.910;5.840;2023-07-02T09:21:26;7.93;;;3.88;;
6475;SDS011;3271;51.910;5.840;2023-07-02T09:23:53;6.85;;;4.28;;
6475;SDS011;3271;51.910;5.840;2023-07-02T09:26:19;7.78;;;4.72;;
6475;SDS011;3271;51.910;5.840;2023-07-02T09:28:45;13.60;;;4.60;;
6475;SDS011;3271;51.910;5.840;2023-07-02T09:31:11;7.30;;;4.03;;
6475;SDS011;3271;51.910;5.840;2023-07-02T09:33:37;9.10;;;4.97;;
6475;SDS011;3271;51.910;5.840;2023-07-02T09:36:03;8.27;;;4.18;;
6475;SDS011;3271;51.910;5.840;2023-07-02T09:38:29;8.27;;;4.35;;
6475;SDS011;3271;51.910;5.840;2023-07-02T09:40:55;7.50;;;4.45;;
6475;SDS011;3271;51.910;5.840;2023-07-02T09:43:22;9.30;;;4.68;;
6475;SDS011;3271;51.910;5.840;2023-07-02T09:45:50;6.50;;;3.80;;
6475;SDS011;3271;51.910;5.840;2023-07-02T09:48:17;8.07;;;3.78;;
6475;SDS011;3271;51.910;5.840;2023-07-02T09:50:47;8.05;;;4.55;;
6475;SDS011;3271;51.910;5.840;2023-07-02T09:53:13;7.57;;;4.20;;
6475;SDS011;3271;51.910;5.840;2023-07-02T09:55:39;6.50;;;3.80;;
6475;SDS011;3271;51.910;5.840;2023-07-02T09:58:07;8.50;;;4.55;;
6475;SDS011;3271;51.910;5.840;2023-07-02T10:00:33;8.38;;;3.65;;
6475;SDS011;3271;51.910;5.840;2023-07-02T10:02:59;7.50;;;4.25;;
6475;SDS011;3271;51.910;5.840;2023-07-02T10:05:29;10.32;;;4.43;;
6475;SDS011;3271;51.910;5.840;2023-07-02T10:07:56;5.03;;;3.97;;
6475;SDS011;3271;51.910;5.840;2023-07-02T10:10:28;7.95;;;3.75;;
6475;SDS011;3271;51.910;5.840;2023-07-02T10:12:55;5.20;;;3.22;;
6475;SDS011;3271;51.910;5.840;2023-07-02T10:15:24;5.70;;;4.03;;
6475;SDS011;3271;51.910;5.840;2023-07-02T10:17:58;6.53;;;3.90;;
6475;SDS011;3271;51.910;5.840;2023-07-02T10:20:34;4.75;;;3.50;;
6475;SDS011;3271;51.910;5.840;2023-07-02T10:23:00;7.63;;;3.60;;
6475;SDS011;3271;51.910;5.840;2023-07-02T10:25:30;8.25;;;3.90;;
6475;SDS011;3271;51.910;5.840;2023-07-02T10:27:57;9.07;;;4.05;;
6475;SDS011;3271;51.910;5.840;2023-07-02T10:30:34;5.93;;;3.53;;
6475;SDS011;3271;51.910;5.840;2023-07-02T10:33:10;8.70;;;4.25;;
6475;SDS011;3271;51.910;5.840;2023-07-02T10:35:36;5.35;;;3.15;;
6475;SDS011;3271;51.910;5.840;2023-07-02T10:38:03;7.65;;;3.53;;
6475;SDS011;3271;51.910;5.840;2023-07-02T10:40:29;5.72;;;3.53;;
6475;SDS011;3271;51.910;5.840;2023-07-02T10:42:55;5.18;;;3.10;;
6475;SDS011;3271;51.910;5.840;2023-07-02T10:45:30;6.25;;;3.90;;
6475;SDS011;3271;51.910;5.840;2023-07-02T10:47:56;7.70;;;3.67;;
6475;SDS011;3271;51.910;5.840;2023-07-02T10:50:22;8.85;;;3.75;;
6475;SDS011;3271;51.910;5.840;2023-07-02T10:52:48;6.60;;;3.88;;
6475;SDS011;3271;51.910;5.840;2023-07-02T10:55:22;10.57;;;4.22;;
6475;SDS011;3271;51.910;5.840;2023-07-02T10:57:48;7.57;;;3.60;;
6475;SDS011;3271;51.910;5.840;2023-07-02T11:00:17;6.15;;;3.45;;
6475;SDS011;3271;51.910;5.840;2023-07-02T11:02:44;7.75;;;4.57;;
6475;SDS011;3271;51.910;5.840;2023-07-02T11:05:10;5.40;;;3.17;;
6475;SDS011;3271;51.910;5.840;2023-07-02T11:07:40;4.95;;;3.10;;
6475;SDS011;3271;51.910;5.840;2023-07-02T11:10:06;6.30;;;3.65;;
6475;SDS011;3271;51.910;5.840;2023-07-02T11:12:32;7.68;;;3.60;;
6475;SDS011;3271;51.910;5.840;2023-07-02T11:15:11;8.95;;;4.03;;
6475;SDS011;3271;51.910;5.840;2023-07-02T11:17:38;7.15;;;3.63;;
6475;SDS011;3271;51.910;5.840;2023-07-02T11:20:06;7.60;;;3.92;;
6475;SDS011;3271;51.910;5.840;2023-07-02T11:22:33;7.28;;;3.60;;
6475;SDS011;3271;51.910;5.840;2023-07-02T11:25:16;7.47;;;3.75;;
6475;SDS011;3271;51.910;5.840;2023-07-02T11:27:42;5.15;;;3.15;;
6475;SDS011;3271;51.910;5.840;2023-07-02T11:30:08;5.53;;;3.85;;
6475;SDS011;3271;51.910;5.840;2023-07-02T11:32:35;4.32;;;3.53;;
6475;SDS011;3271;51.910;5.840;2023-07-02T11:35:01;5.45;;;3.30;;
6475;SDS011;3271;51.910;5.840;2023-07-02T11:37:26;4.72;;;2.85;;
6475;SDS011;3271;51.910;5.840;2023-07-02T11:39:53;10.20;;;3.70;;
6475;SDS011;3271;51.910;5.840;2023-07-02T11:42:19;5.72;;;3.83;;
6475;SDS011;3271;51.910;5.840;2023-07-02T11:44:46;4.28;;;3.15;;
6475;SDS011;3271;51.910;5.840;2023-07-02T11:47:12;3.88;;;3.08;;
6475;SDS011;3271;51.910;5.840;2023-07-02T11:49:38;5.45;;;3.28;;
6475;SDS011;3271;51.910;5.840;2023-07-02T11:52:04;5.65;;;3.15;;
6475;SDS011;3271;51.910;5.840;2023-07-02T11:54:30;9.20;;;3.50;;
6475;SDS011;3271;51.910;5.840;2023-07-02T11:56:56;4.20;;;3.13;;
6475;SDS011;3271;51.910;5.840;2023-07-02T11:59:22;5.60;;;3.20;;
6475;SDS011;3271;51.910;5.840;2023-07-02T12:01:48;3.63;;;3.00;;
6475;SDS011;3271;51.910;5.840;2023-07-02T12:04:14;8.75;;;3.20;;
6475;SDS011;3271;51.910;5.840;2023-07-02T12:06:40;4.07;;;3.28;;
6475;SDS011;3271;51.910;5.840;2023-07-02T12:09:06;5.13;;;3.47;;
6475;SDS011;3271;51.910;5.840;2023-07-02T12:11:32;3.83;;;2.70;;
6475;SDS011;3271;51.910;5.840;2023-07-02T12:13:58;6.68;;;3.30;;
6475;SDS011;3271;51.910;5.840;2023-07-02T12:16:24;5.65;;;3.47;;
6475;SDS011;3271;51.910;5.840;2023-07-02T12:18:50;5.57;;;3.00;;
6475;SDS011;3271;51.910;5.840;2023-07-02T12:21:16;5.40;;;3.50;;
6475;SDS011;3271;51.910;5.840;2023-07-02T12:23:43;3.88;;;3.05;;
6475;SDS011;3271;51.910;5.840;2023-07-02T12:26:09;4.65;;;2.80;;
6475;SDS011;3271;51.910;5.840;2023-07-02T12:28:35;4.28;;;3.25;;
6475;SDS011;3271;51.910;5.840;2023-07-02T12:31:01;4.13;;;2.92;;
6475;SDS011;3271;51.910;5.840;2023-07-02T12:33:27;6.95;;;3.88;;
6475;SDS011;3271;51.910;5.840;2023-07-02T12:35:53;6.35;;;3.45;;
6475;SDS011;3271;51.910;5.840;2023-07-02T12:38:19;4.72;;;2.83;;
6475;SDS011;3271;51.910;5.840;2023-07-02T12:40:45;7.28;;;3.00;;
6475;SDS011;3271;51.910;5.840;2023-07-02T12:43:13;5.20;;;3.30;;
6475;SDS011;3271;51.910;5.840;2023-07-02T12:45:39;4.43;;;2.85;;
6475;SDS011;3271;51.910;5.840;2023-07-02T12:48:05;4.90;;;2.88;;
6475;SDS011;3271;51.910;5.840;2023-07-02T12:50:31;7.82;;;3.05;;
6475;SDS011;3271;51.910;5.840;2023-07-02T12:52:57;3.17;;;2.80;;
6475;SDS011;3271;51.910;5.840;2023-07-02T12:55:23;4.22;;;2.97;;
6475;SDS011;3271;51.910;5.840;2023-07-02T12:57:49;5.47;;;3.20;;
6475;SDS011;3271;51.910;5.840;2023-07-02T13:00:15;4.60;;;2.80;;
6475;SDS011;3271;51.910;5.840;2023-07-02T13:02:41;5.20;;;2.90;;
6475;SDS011;3271;51.910;5.840;2023-07-02T13:05:07;3.92;;;2.97;;
6475;SDS011;3271;51.910;5.840;2023-07-02T13:07:33;3.42;;;2.78;;
6475;SDS011;3271;51.910;5.840;2023-07-02T13:09:59;6.15;;;3.20;;
6475;SDS011;3271;51.910;5.840;2023-07-02T13:12:25;5.93;;;3.15;;
6475;SDS011;3271;51.910;5.840;2023-07-02T13:14:51;4.53;;;3.05;;
6475;SDS011;3271;51.910;5.840;2023-07-02T13:17:17;8.95;;;3.45;;
6475;SDS011;3271;51.910;5.840;2023-07-02T13:19:42;5.75;;;3.58;;
6475;SDS011;3271;51.910;5.840;2023-07-02T13:22:09;5.57;;;3.10;;
6475;SDS011;3271;51.910;5.840;2023-07-02T13:24:35;5.53;;;3.15;;
6475;SDS011;3271;51.910;5.840;2023-07-02T13:27:05;4.57;;;2.88;;
6475;SDS011;3271;51.910;5.840;2023-07-02T13:29:33;5.70;;;3.30;;
6475;SDS011;3271;51.910;5.840;2023-07-02T13:31:58;5.82;;;3.80;;
6475;SDS011;3271;51.910;5.840;2023-07-02T13:34:24;5.65;;;3.08;;
6475;SDS011;3271;51.910;5.840;2023-07-02T13:36:50;6.18;;;3.35;;
6475;SDS011;3271;51.910;5.840;2023-07-02T13:39:16;7.38;;;3.22;;
6475;SDS011;3271;51.910;5.840;2023-07-02T13:41:42;5.55;;;3.10;;
6475;SDS011;3271;51.910;5.840;2023-07-02T13:44:08;4.63;;;2.70;;
6475;SDS011;3271;51.910;5.840;2023-07-02T13:46:34;6.63;;;2.80;;
6475;SDS011;3271;51.910;5.840;2023-07-02T13:49:00;6.88;;;3.75;;
6475;SDS011;3271;51.910;5.840;2023-07-02T13:51:26;7.05;;;3.65;;
6475;SDS011;3271;51.910;5.840;2023-07-02T13:53:52;5.93;;;3.30;;
6475;SDS011;3271;51.910;5.840;2023-07-02T13:56:18;6.22;;;4.18;;
6475;SDS011;3271;51.910;5.840;2023-07-02T13:58:58;3.95;;;2.70;;
6475;SDS011;3271;51.910;5.840;2023-07-02T14:01:24;4.55;;;3.33;;
6475;SDS011;3271;51.910;5.840;2023-07-02T14:03:50;6.75;;;3.92;;
6475;SDS011;3271;51.910;5.840;2023-07-02T14:06:16;6.40;;;3.25;;
6475;SDS011;3271;51.910;5.840;2023-07-02T14:08:42;4.68;;;3.15;;
6475;SDS011;3271;51.910;5.840;2023-07-02T14:11:08;6.07;;;3.25;;
6475;SDS011;3271;51.910;5.840;2023-07-02T14:13:34;5.38;;;3.30;;
6475;SDS011;3271;51.910;5.840;2023-07-02T14:16:01;4.97;;;3.25;;
6475;SDS011;3271;51.910;5.840;2023-07-02T14:18:27;4.95;;;3.00;;
6475;SDS011;3271;51.910;5.840;2023-07-02T14:20:52;4.93;;;3.00;;
6475;SDS011;3271;51.910;5.840;2023-07-02T14:23:18;5.65;;;3.45;;
6475;SDS011;3271;51.910;5.840;2023-07-02T14:25:44;5.00;;;3.30;;
6475;SDS011;3271;51.910;5.840;2023-07-02T14:28:10;5.40;;;3.20;;
6475;SDS011;3271;51.910;5.840;2023-07-02T14:30:36;4.40;;;2.83;;
6475;SDS011;3271;51.910;5.840;2023-07-02T14:33:02;6.72;;;3.55;;
6475;SDS011;3271;51.910;5.840;2023-07-02T14:35:29;5.97;;;3.58;;
6475;SDS011;3271;51.910;5.840;2023-07-02T14:37:56;6.80;;;3.58;;
6475;SDS011;3271;51.910;5.840;2023-07-02T14:40:22;6.22;;;3.55;;
6475;SDS011;3271;51.910;5.840;2023-07-02T14:42:48;7.50;;;3.70;;
6475;SDS011;3271;51.910;5.840;2023-07-02T14:45:15;4.55;;;3.15;;
6475;SDS011;3271;51.910;5.840;2023-07-02T14:47:41;4.57;;;3.38;;
6475;SDS011;3271;51.910;5.840;2023-07-02T14:50:07;8.65;;;4.03;;
6475;SDS011;3271;51.910;5.840;2023-07-02T14:52:33;5.95;;;3.00;;
6475;SDS011;3271;51.910;5.840;2023-07-02T14:54:59;7.82;;;3.60;;
6475;SDS011;3271;51.910;5.840;2023-07-02T14:57:26;7.32;;;3.60;;
6475;SDS011;3271;51.910;5.840;2023-07-02T14:59:52;7.20;;;3.40;;
6475;SDS011;3271;51.910;5.840;2023-07-02T15:02:18;6.93;;;3.90;;
6475;SDS011;3271;51.910;5.840;2023-07-02T15:04:44;4.95;;;3.17;;
6475;SDS011;3271;51.910;5.840;2023-07-02T15:07:10;7.88;;;3.67;;
6475;SDS011;3271;51.910;5.840;2023-07-02T15:09:36;7.38;;;3.75;;